createdAt,value
2017-10-17T00:00:29.118Z,0
2017-10-17T00:01:39.499Z,0
2017-10-17T00:02:49.636Z,0
2017-10-17T00:04:01.036Z,0
2017-10-17T00:05:11.466Z,0
2017-10-17T00:06:21.850Z,0
2017-10-17T00:07:32.252Z,0
2017-10-17T00:08:42.671Z,0
2017-10-17T00:09:52.426Z,0
2017-10-17T00:11:02.500Z,0
2017-10-17T00:12:13.957Z,0
2017-10-17T00:13:24.355Z,0
2017-10-17T00:14:34.814Z,0
2017-10-17T00:15:44.906Z,0
2017-10-17T00:16:55.314Z,0
2017-10-17T00:18:05.390Z,0
2017-10-17T00:19:15.777Z,0
2017-10-17T00:20:25.513Z,0
2017-10-17T00:21:35.905Z,0
2017-10-17T00:22:46.299Z,0
2017-10-17T00:23:56.693Z,0
2017-10-17T00:25:06.784Z,0
2017-10-17T00:26:17.209Z,0
2017-10-17T00:27:27.605Z,0
2017-10-17T00:28:37.691Z,0
2017-10-17T00:29:48.099Z,0
2017-10-17T00:30:58.174Z,0
2017-10-17T00:32:08.298Z,0
2017-10-17T00:33:18.352Z,0
2017-10-17T00:34:28.749Z,0
2017-10-17T00:35:39.152Z,0
2017-10-17T00:36:49.544Z,0
2017-10-17T00:37:59.985Z,0
2017-10-17T00:39:10.687Z,0
2017-10-17T00:40:20.769Z,0
2017-10-17T00:41:30.841Z,0
2017-10-17T00:42:40.925Z,0
2017-10-17T00:43:51.371Z,0
2017-10-17T00:45:01.781Z,0
2017-10-17T00:46:11.839Z,0
2017-10-17T00:47:22.253Z,0
2017-10-17T00:48:32.656Z,0
2017-10-17T00:49:43.093Z,0
2017-10-17T00:50:53.165Z,0
2017-10-17T00:52:03.275Z,0
2017-10-17T00:53:13.028Z,0
2017-10-17T00:54:23.441Z,0
2017-10-17T00:55:33.852Z,0
2017-10-17T00:56:43.916Z,0
2017-10-17T00:57:54.311Z,0
2017-10-17T00:59:04.714Z,0
2017-10-17T01:00:15.118Z,0
2017-10-17T01:01:25.511Z,0
2017-10-17T01:02:35.582Z,0
2017-10-17T01:03:45.315Z,0
2017-10-17T01:04:55.717Z,0
2017-10-17T01:06:05.810Z,0
2017-10-17T01:07:15.924Z,0
2017-10-17T01:08:26.326Z,0
2017-10-17T01:09:36.410Z,0
2017-10-17T01:10:46.812Z,0
2017-10-17T01:11:57.237Z,0
2017-10-17T01:13:07.358Z,0
2017-10-17T01:14:17.745Z,0
2017-10-17T01:15:28.171Z,0
2017-10-17T01:16:38.568Z,0
2017-10-17T01:17:48.974Z,0
2017-10-17T01:18:58.796Z,0
2017-10-17T01:20:09.194Z,0
2017-10-17T01:21:19.291Z,0
2017-10-17T01:22:29.370Z,0
2017-10-17T01:23:39.440Z,0
2017-10-17T01:24:49.500Z,0
2017-10-17T01:25:59.574Z,0
2017-10-17T01:27:09.960Z,0
2017-10-17T01:28:20.024Z,0
2017-10-17T01:29:30.428Z,0
2017-10-17T01:30:40.824Z,0
2017-10-17T01:31:50.554Z,0
2017-10-17T01:33:00.624Z,0
2017-10-17T01:34:10.709Z,0
2017-10-17T01:35:21.110Z,0
2017-10-17T01:36:31.578Z,0
2017-10-17T01:37:41.986Z,0
2017-10-17T01:38:52.397Z,0
2017-10-17T01:40:02.781Z,0
2017-10-17T01:41:13.184Z,0
2017-10-17T01:42:23.242Z,0
2017-10-17T01:43:33.644Z,0
2017-10-17T01:44:43.401Z,0
2017-10-17T01:45:53.815Z,0
2017-10-17T01:47:04.210Z,0
2017-10-17T01:48:14.706Z,0
2017-10-17T01:49:25.097Z,0
2017-10-17T01:50:35.165Z,0
2017-10-17T01:51:45.566Z,0
2017-10-17T01:52:55.974Z,0
2017-10-17T01:54:06.063Z,0
2017-10-17T01:55:16.469Z,0
2017-10-17T01:56:26.884Z,0
2017-10-17T01:57:36.963Z,0
2017-10-17T01:58:47.359Z,0
2017-10-17T01:59:57.803Z,0
2017-10-17T02:01:08.215Z,0
2017-10-17T02:02:18.598Z,0
2017-10-17T02:03:28.338Z,0
2017-10-17T02:04:38.737Z,0
2017-10-17T02:05:49.191Z,0
2017-10-17T02:06:59.590Z,0
2017-10-17T02:08:09.670Z,0
2017-10-17T02:09:19.748Z,0
2017-10-17T02:10:30.135Z,0
2017-10-17T02:11:40.252Z,0
2017-10-17T02:12:50.633Z,0
2017-10-17T02:14:01.026Z,0
2017-10-17T02:15:11.432Z,0
2017-10-17T02:16:21.831Z,0
2017-10-17T02:17:32.286Z,0
2017-10-17T02:18:42.689Z,0
2017-10-17T02:19:53.099Z,0
2017-10-17T02:21:03.532Z,0
2017-10-17T02:22:13.923Z,0
2017-10-17T02:23:23.343Z,0
2017-10-17T02:24:33.403Z,0
2017-10-17T02:25:43.798Z,0
2017-10-17T02:26:54.191Z,0
2017-10-17T02:28:04.583Z,0
2017-10-17T02:29:14.697Z,0
2017-10-17T02:30:25.110Z,0
2017-10-17T02:31:35.194Z,0
2017-10-17T02:32:45.590Z,0
2017-10-17T02:33:55.999Z,0
2017-10-17T02:35:05.784Z,0
2017-10-17T02:36:16.186Z,0
2017-10-17T02:37:26.584Z,0
2017-10-17T02:38:37.000Z,0
2017-10-17T02:39:47.074Z,0
2017-10-17T02:40:57.193Z,0
2017-10-17T02:42:07.610Z,0
2017-10-17T02:43:18.019Z,0
2017-10-17T02:44:28.098Z,0
2017-10-17T02:45:38.499Z,0
2017-10-17T02:46:48.895Z,0
2017-10-17T02:47:59.008Z,0
2017-10-17T02:49:09.413Z,0
2017-10-17T02:50:19.503Z,0
2017-10-17T02:51:29.894Z,0
2017-10-17T02:52:40.018Z,0
2017-10-17T02:53:50.412Z,0
2017-10-17T02:55:00.471Z,0
2017-10-17T02:56:10.908Z,0
2017-10-17T02:57:20.651Z,0
2017-10-17T02:58:31.047Z,0
2017-10-17T02:59:41.471Z,0
2017-10-17T03:00:51.858Z,0
2017-10-17T03:02:02.272Z,0
2017-10-17T03:34:03.090Z,0
2017-10-17T03:35:13.154Z,0
2017-10-17T03:36:23.581Z,0
2017-10-17T03:37:33.983Z,0
2017-10-17T03:38:44.388Z,0
2017-10-17T03:39:54.825Z,0
2017-10-17T03:41:04.891Z,0
2017-10-17T03:42:15.297Z,0
2017-10-17T03:43:25.683Z,0
2017-10-17T03:44:35.751Z,0
2017-10-17T03:45:46.218Z,0
2017-10-17T03:46:56.645Z,0
2017-10-17T03:48:07.091Z,0
2017-10-17T03:49:17.493Z,0
2017-10-17T03:50:27.892Z,0
2017-10-17T03:51:37.948Z,0
2017-10-17T03:52:48.323Z,0
2017-10-17T03:53:58.735Z,0
2017-10-17T03:55:08.821Z,0
2017-10-17T03:56:19.210Z,0
2017-10-17T03:57:29.626Z,0
2017-10-17T03:58:39.690Z,0
2017-10-17T03:59:50.099Z,0
2017-10-17T04:01:00.476Z,0
2017-10-17T04:02:10.875Z,0
2017-10-17T04:03:21.336Z,0
2017-10-17T04:04:31.392Z,0
2017-10-17T04:05:41.464Z,0
2017-10-17T04:06:51.869Z,0
2017-10-17T04:08:02.269Z,0
2017-10-17T04:09:12.728Z,0
2017-10-17T04:10:23.156Z,0
2017-10-17T04:11:33.236Z,0
2017-10-17T04:12:43.320Z,0
2017-10-17T04:13:53.722Z,0
2017-10-17T04:15:03.852Z,0
2017-10-17T04:16:13.576Z,0
2017-10-17T04:17:23.997Z,0
2017-10-17T04:18:34.388Z,0
2017-10-17T04:19:44.799Z,0
2017-10-17T04:20:55.215Z,0
2017-10-17T04:22:05.292Z,0
2017-10-17T04:23:15.682Z,0
2017-10-17T04:24:25.418Z,0
2017-10-17T04:25:35.816Z,0
2017-10-17T04:26:46.224Z,0
2017-10-17T04:27:56.611Z,0
2017-10-17T04:29:06.350Z,0
2017-10-17T04:30:16.082Z,0
2017-10-17T04:31:26.487Z,0
2017-10-17T04:32:36.289Z,0
2017-10-17T04:33:46.701Z,0
2017-10-17T04:34:57.103Z,0
2017-10-17T04:36:07.513Z,0
2017-10-17T04:37:17.926Z,0
2017-10-17T04:38:28.367Z,0
2017-10-17T04:39:38.444Z,0
2017-10-17T04:40:48.855Z,0
2017-10-17T04:41:58.601Z,0
2017-10-17T04:43:08.659Z,0
2017-10-17T04:44:18.773Z,0
2017-10-17T04:45:29.174Z,0
2017-10-17T04:46:39.224Z,0
2017-10-17T04:47:49.608Z,4
2017-10-17T04:48:59.668Z,0
2017-10-17T04:50:10.083Z,0
2017-10-17T04:51:20.492Z,4
2017-10-17T04:52:30.886Z,0
2017-10-17T04:53:41.273Z,4
2017-10-17T04:54:51.342Z,4
2017-10-17T04:56:01.806Z,4
2017-10-17T04:57:11.873Z,4
2017-10-17T04:58:22.255Z,8
2017-10-17T04:59:32.655Z,8
2017-10-17T05:00:42.724Z,8
2017-10-17T05:01:53.212Z,12
2017-10-17T05:03:03.285Z,12
2017-10-17T05:04:13.681Z,16
2017-10-17T05:05:23.749Z,24
2017-10-17T05:06:33.817Z,24
2017-10-17T05:07:44.227Z,28
2017-10-17T05:08:54.299Z,32
2017-10-17T05:10:04.740Z,40
2017-10-17T05:11:15.128Z,48
2017-10-17T05:12:25.553Z,52
2017-10-17T05:13:35.951Z,60
2017-10-17T05:14:46.362Z,68
2017-10-17T05:15:56.771Z,76
2017-10-17T05:17:06.858Z,84
2017-10-17T05:18:17.255Z,92
2017-10-17T05:19:27.675Z,100
2017-10-17T05:20:38.053Z,108
2017-10-17T05:21:48.504Z,116
2017-10-17T05:22:58.561Z,128
2017-10-17T05:24:08.968Z,140
2017-10-17T05:25:19.433Z,152
2017-10-17T05:26:29.515Z,160
2017-10-17T05:27:39.573Z,176
2017-10-17T05:28:49.644Z,188
2017-10-17T05:30:00.052Z,204
2017-10-17T05:31:10.507Z,216
2017-10-17T05:32:20.890Z,236
2017-10-17T05:33:30.941Z,256
2017-10-17T05:34:41.353Z,272
2017-10-17T05:35:51.744Z,296
2017-10-17T05:37:02.165Z,320
2017-10-17T05:38:12.542Z,340
2017-10-17T05:39:23.236Z,356
2017-10-17T05:40:33.626Z,380
2017-10-17T05:41:44.010Z,392
2017-10-17T05:42:54.080Z,416
2017-10-17T05:44:04.465Z,436
2017-10-17T05:45:14.889Z,452
2017-10-17T05:46:25.280Z,476
2017-10-17T05:47:35.359Z,508
2017-10-17T05:48:45.778Z,532
2017-10-17T05:49:55.851Z,556
2017-10-17T05:51:05.936Z,576
2017-10-17T05:52:16.326Z,600
2017-10-17T05:53:27.543Z,628
2017-10-17T05:54:37.955Z,660
2017-10-17T05:55:47.711Z,696
2017-10-17T05:56:57.795Z,728
2017-10-17T05:58:07.861Z,744
2017-10-17T05:59:18.298Z,764
2017-10-17T06:00:28.744Z,788
2017-10-17T06:01:39.149Z,816
2017-10-17T06:02:49.222Z,832
2017-10-17T06:03:59.313Z,872
2017-10-17T06:05:09.703Z,908
2017-10-17T06:06:19.461Z,952
2017-10-17T06:07:29.882Z,992
2017-10-17T06:08:40.272Z,1032
2017-10-17T06:09:50.336Z,1068
2017-10-17T06:11:00.414Z,1108
2017-10-17T06:12:10.806Z,1140
2017-10-17T06:13:21.209Z,1168
2017-10-17T06:14:31.800Z,1200
2017-10-17T06:15:42.206Z,1200
2017-10-17T06:16:52.262Z,1220
2017-10-17T06:18:02.673Z,1280
2017-10-17T06:19:12.748Z,1304
2017-10-17T06:20:22.827Z,1328
2017-10-17T06:21:32.924Z,1384
2017-10-17T06:22:42.993Z,1400
2017-10-17T06:23:53.118Z,1392
2017-10-17T06:25:03.520Z,1416
2017-10-17T06:26:13.975Z,1412
2017-10-17T06:27:24.373Z,1420
2017-10-17T06:28:34.781Z,1460
2017-10-17T06:29:45.191Z,1480
2017-10-17T06:30:55.585Z,1524
2017-10-17T06:32:05.999Z,1612
2017-10-17T06:33:16.398Z,1676
2017-10-17T06:34:26.785Z,1692
2017-10-17T06:35:37.181Z,1732
2017-10-17T06:36:47.241Z,1756
2017-10-17T06:37:57.641Z,1772
2017-10-17T06:39:08.081Z,1768
2017-10-17T06:40:17.831Z,1744
2017-10-17T06:41:27.954Z,1760
2017-10-17T06:42:38.359Z,1776
2017-10-17T06:43:48.761Z,1848
2017-10-17T06:44:58.831Z,1912
2017-10-17T06:46:09.245Z,1940
2017-10-17T06:47:19.703Z,1984
2017-10-17T06:48:29.775Z,1960
2017-10-17T06:49:40.195Z,1980
2017-10-17T06:50:50.280Z,2008
2017-10-17T06:52:00.701Z,2020
2017-10-17T06:53:11.106Z,2072
2017-10-17T06:54:21.171Z,2140
2017-10-17T06:55:31.232Z,2188
2017-10-17T06:56:41.306Z,2268
2017-10-17T06:57:51.743Z,2300
2017-10-17T06:59:01.861Z,2232
2017-10-17T07:00:11.612Z,2160
2017-10-17T07:01:22.043Z,2204
2017-10-17T07:02:32.461Z,2236
2017-10-17T07:03:42.877Z,2228
2017-10-17T07:04:53.270Z,2212
2017-10-17T07:06:03.357Z,2248
2017-10-17T07:07:13.782Z,2300
2017-10-17T07:08:24.164Z,2356
2017-10-17T07:09:34.575Z,2444
2017-10-17T07:10:44.698Z,2460
2017-10-17T07:11:55.106Z,2456
2017-10-17T07:13:05.519Z,2488
2017-10-17T07:14:15.917Z,2604
2017-10-17T07:15:26.310Z,2708
2017-10-17T07:16:36.708Z,2728
2017-10-17T07:17:47.118Z,2716
2017-10-17T07:18:57.550Z,2664
2017-10-17T07:20:07.962Z,2676
2017-10-17T07:21:18.048Z,2692
2017-10-17T07:22:28.458Z,2640
2017-10-17T07:23:38.877Z,2676
2017-10-17T07:24:49.314Z,2696
2017-10-17T07:25:59.717Z,2704
2017-10-17T07:27:10.169Z,2772
2017-10-17T07:28:20.650Z,2784
2017-10-17T07:29:31.070Z,2828
2017-10-17T07:30:40.825Z,2904
2017-10-17T07:31:51.223Z,2988
2017-10-17T07:33:01.607Z,3060
2017-10-17T07:34:11.688Z,3040
2017-10-17T07:35:21.770Z,2976
2017-10-17T07:36:31.828Z,2936
2017-10-17T07:37:42.239Z,2932
2017-10-17T07:38:52.643Z,2976
2017-10-17T07:40:02.397Z,2964
2017-10-17T07:41:12.476Z,2952
2017-10-17T07:42:22.543Z,2972
2017-10-17T07:43:32.598Z,3012
2017-10-17T07:44:42.694Z,3012
2017-10-17T07:45:52.820Z,3012
2017-10-17T07:47:02.918Z,3044
2017-10-17T07:48:12.999Z,3116
2017-10-17T07:49:23.081Z,3240
2017-10-17T07:50:33.489Z,3300
2017-10-17T07:51:43.937Z,3352
2017-10-17T07:52:54.332Z,3428
2017-10-17T07:54:04.729Z,3508
2017-10-17T07:55:14.802Z,3592
2017-10-17T07:56:25.231Z,3580
2017-10-17T07:57:35.679Z,3504
2017-10-17T07:58:46.091Z,3492
2017-10-17T07:59:56.503Z,3484
2017-10-17T08:01:06.585Z,3596
2017-10-17T08:02:16.964Z,3756
2017-10-17T08:03:27.431Z,3844
2017-10-17T08:04:37.505Z,3832
2017-10-17T08:05:47.595Z,3776
2017-10-17T08:06:57.990Z,3744
2017-10-17T08:08:08.395Z,3804
2017-10-17T08:09:18.861Z,3800
2017-10-17T08:10:29.258Z,3712
2017-10-17T08:11:39.349Z,3740
2017-10-17T08:12:49.771Z,3840
2017-10-17T08:14:00.167Z,3860
2017-10-17T08:15:10.650Z,3800
2017-10-17T08:16:21.071Z,3768
2017-10-17T08:17:31.153Z,3820
2017-10-17T08:18:41.562Z,3924
2017-10-17T08:19:51.969Z,4004
2017-10-17T08:21:02.402Z,4096
2017-10-17T08:22:12.492Z,4112
2017-10-17T08:23:22.899Z,4064
2017-10-17T08:24:33.315Z,4000
2017-10-17T08:25:43.725Z,3984
2017-10-17T08:26:54.127Z,4028
2017-10-17T08:28:04.548Z,4128
2017-10-17T08:29:14.972Z,4228
2017-10-17T08:30:25.387Z,4332
2017-10-17T08:31:35.464Z,4288
2017-10-17T08:32:45.975Z,4448
2017-10-17T08:33:56.051Z,4648
2017-10-17T08:35:06.117Z,4552
2017-10-17T08:36:16.522Z,4320
2017-10-17T08:37:26.613Z,4148
2017-10-17T08:38:37.015Z,4048
2017-10-17T08:39:47.418Z,3992
2017-10-17T08:40:57.849Z,4088
2017-10-17T08:42:08.322Z,4144
2017-10-17T08:43:18.409Z,4096
2017-10-17T08:44:28.543Z,4040
2017-10-17T08:45:39.016Z,4012
2017-10-17T08:46:49.429Z,4000
2017-10-17T08:47:59.844Z,4096
2017-10-17T08:49:09.931Z,4276
2017-10-17T08:50:20.404Z,4440
2017-10-17T08:51:30.480Z,4976
2017-10-17T08:52:40.902Z,4728
2017-10-17T08:53:50.997Z,4296
2017-10-17T08:55:01.112Z,4260
2017-10-17T08:56:11.571Z,4748
2017-10-17T08:57:21.992Z,4308
2017-10-17T08:58:32.087Z,4088
2017-10-17T08:59:42.511Z,4204
2017-10-17T09:00:52.943Z,4336
2017-10-17T09:02:03.390Z,4128
2017-10-17T09:03:13.479Z,4136
2017-10-17T09:04:23.931Z,4072
2017-10-17T09:05:34.012Z,3932
2017-10-17T09:06:44.489Z,3832
2017-10-17T09:07:54.893Z,3872
2017-10-17T09:09:05.310Z,4020
2017-10-17T09:10:15.726Z,4432
2017-10-17T09:11:26.146Z,4656
2017-10-17T09:12:36.567Z,4772
2017-10-17T09:13:47.019Z,4508
2017-10-17T09:14:57.117Z,5248
2017-10-17T09:16:07.546Z,4964
2017-10-17T09:17:17.671Z,5688
2017-10-17T09:18:28.070Z,5900
2017-10-17T09:19:38.224Z,5456
2017-10-17T09:20:48.624Z,5396
2017-10-17T09:21:59.032Z,6192
2017-10-17T09:23:09.207Z,6332
2017-10-17T09:24:19.733Z,5464
2017-10-17T09:25:30.210Z,4468
2017-10-17T09:26:40.289Z,5148
2017-10-17T09:27:50.702Z,4792
2017-10-17T09:29:00.446Z,5420
2017-10-17T09:30:10.546Z,5644
2017-10-17T09:31:21.002Z,6208
2017-10-17T09:32:31.080Z,6180
2017-10-17T09:33:41.153Z,6540
2017-10-17T09:34:51.572Z,6376
2017-10-17T09:36:01.679Z,6260
2017-10-17T09:37:12.148Z,6472
2017-10-17T09:38:22.561Z,6664
2017-10-17T09:39:32.976Z,6524
2017-10-17T09:40:43.794Z,6400
2017-10-17T09:41:53.865Z,6376
2017-10-17T09:43:04.415Z,6612
2017-10-17T09:44:14.862Z,6624
2017-10-17T09:45:24.946Z,6596
2017-10-17T09:46:35.025Z,6472
2017-10-17T09:47:45.465Z,6504
2017-10-17T09:48:55.931Z,6520
2017-10-17T09:50:06.353Z,6584
2017-10-17T09:51:16.772Z,6652
2017-10-17T09:52:27.210Z,6592
2017-10-17T09:53:37.632Z,5876
2017-10-17T09:54:48.084Z,6628
2017-10-17T09:55:58.511Z,6648
2017-10-17T09:57:08.920Z,6540
2017-10-17T09:58:19.024Z,6624
2017-10-17T09:59:29.453Z,6792
2017-10-17T10:00:39.934Z,6644
2017-10-17T10:01:50.365Z,6712
2017-10-17T10:03:00.472Z,6708
2017-10-17T10:04:10.923Z,6756
2017-10-17T10:05:21.001Z,6776
2017-10-17T10:06:31.146Z,6816
2017-10-17T10:07:41.553Z,6808
2017-10-17T10:08:51.986Z,6564
2017-10-17T10:10:02.402Z,6800
2017-10-17T10:11:12.832Z,6776
2017-10-17T10:12:23.244Z,6820
2017-10-17T10:13:33.672Z,6736
2017-10-17T10:14:44.096Z,6088
2017-10-17T10:15:54.225Z,6776
2017-10-17T10:17:04.646Z,6772
2017-10-17T10:18:15.110Z,6820
2017-10-17T10:19:25.528Z,6844
2017-10-17T10:20:35.958Z,6840
2017-10-17T10:21:46.054Z,6612
2017-10-17T10:22:56.525Z,7048
2017-10-17T10:24:06.959Z,6940
2017-10-17T10:25:17.376Z,7040
2017-10-17T10:26:27.468Z,6808
2017-10-17T10:27:37.876Z,6796
2017-10-17T10:28:48.300Z,7076
2017-10-17T10:29:58.386Z,6740
2017-10-17T10:31:08.815Z,7212
2017-10-17T10:32:19.208Z,6964
2017-10-17T10:33:29.611Z,7092
2017-10-17T10:34:40.039Z,6880
2017-10-17T10:35:50.454Z,6824
2017-10-17T10:37:00.923Z,6876
2017-10-17T10:38:11.350Z,7352
2017-10-17T10:39:21.103Z,7264
2017-10-17T10:40:31.531Z,6872
2017-10-17T10:41:41.958Z,7404
2017-10-17T10:42:52.360Z,7396
2017-10-17T10:44:02.775Z,7156
2017-10-17T10:45:12.859Z,7784
2017-10-17T10:46:22.618Z,7540
2017-10-17T10:47:33.027Z,8064
2017-10-17T10:48:43.164Z,7792
2017-10-17T10:49:53.235Z,7212
2017-10-17T10:51:03.645Z,7060
2017-10-17T10:52:13.731Z,5920
2017-10-17T10:53:24.133Z,5588
2017-10-17T10:54:34.588Z,4376
2017-10-17T10:55:44.991Z,3592
2017-10-17T10:56:55.400Z,4208
2017-10-17T10:58:04.837Z,4272
2017-10-17T10:59:15.263Z,5140
2017-10-17T11:00:25.734Z,4344
2017-10-17T11:01:36.162Z,4736
2017-10-17T11:02:46.593Z,7492
2017-10-17T11:03:56.655Z,7552
2017-10-17T11:05:06.735Z,7420
2017-10-17T11:06:17.206Z,7400
2017-10-17T11:07:27.615Z,7260
2017-10-17T11:08:38.043Z,7108
2017-10-17T11:09:48.138Z,6996
2017-10-17T11:10:58.559Z,6636
2017-10-17T11:12:08.965Z,6556
2017-10-17T11:13:19.365Z,6460
2017-10-17T11:14:29.767Z,6488
2017-10-17T11:15:39.518Z,6772
2017-10-17T11:16:49.935Z,6780
2017-10-17T11:18:00.065Z,6884
2017-10-17T11:19:10.491Z,6824
2017-10-17T11:20:20.898Z,6748
2017-10-17T11:21:31.326Z,6776
2017-10-17T11:22:41.416Z,6920
2017-10-17T11:23:51.876Z,6932
2017-10-17T11:25:02.299Z,6964
2017-10-17T11:26:12.711Z,6888
2017-10-17T11:27:23.118Z,6912
2017-10-17T11:28:33.556Z,6904
2017-10-17T11:29:43.699Z,6900
2017-10-17T11:30:53.788Z,6796
2017-10-17T11:32:03.885Z,6620
2017-10-17T11:33:14.314Z,6588
2017-10-17T11:34:24.741Z,6664
2017-10-17T11:35:35.198Z,6840
2017-10-17T11:36:45.614Z,6936
2017-10-17T11:37:56.070Z,6880
2017-10-17T11:39:06.499Z,6884
2017-10-17T11:40:16.910Z,6964
2017-10-17T11:41:26.764Z,6888
2017-10-17T11:42:37.178Z,6896
2017-10-17T11:43:47.584Z,6892
2017-10-17T11:44:58.074Z,6896
2017-10-17T11:46:08.484Z,6892
2017-10-17T11:47:18.898Z,6920
2017-10-17T11:48:29.325Z,6892
2017-10-17T11:49:39.407Z,6860
2017-10-17T11:50:49.853Z,6964
2017-10-17T11:52:00.273Z,7016
2017-10-17T11:53:10.756Z,7036
2017-10-17T11:54:21.234Z,7100
2017-10-17T11:55:31.657Z,7132
2017-10-17T11:56:42.071Z,7224
2017-10-17T11:57:51.821Z,7204
2017-10-17T11:59:02.284Z,7168
2017-10-17T12:00:12.706Z,7192
2017-10-17T12:01:23.113Z,7188
2017-10-17T12:02:33.554Z,7128
2017-10-17T12:03:43.627Z,7132
2017-10-17T12:04:54.048Z,7040
2017-10-17T12:06:04.485Z,7024
2017-10-17T12:07:14.910Z,7088
2017-10-17T12:08:25.321Z,7080
2017-10-17T12:09:35.426Z,7012
2017-10-17T12:10:45.883Z,6988
2017-10-17T12:11:55.979Z,7112
2017-10-17T12:13:06.390Z,7104
2017-10-17T12:14:16.822Z,7048
2017-10-17T12:15:27.248Z,7092
2017-10-17T12:16:37.380Z,7336
2017-10-17T12:17:47.796Z,7280
2017-10-17T12:18:58.213Z,7284
2017-10-17T12:20:08.672Z,7276
2017-10-17T12:21:19.123Z,7264
2017-10-17T12:22:29.619Z,7216
2017-10-17T12:23:40.040Z,7200
2017-10-17T12:24:50.467Z,7036
2017-10-17T12:26:00.905Z,7136
2017-10-17T12:27:11.316Z,7120
2017-10-17T12:28:21.448Z,6960
2017-10-17T12:29:31.207Z,6980
2017-10-17T12:30:41.624Z,6908
2017-10-17T12:31:51.704Z,6816
2017-10-17T12:33:02.125Z,6800
2017-10-17T12:34:12.274Z,6672
2017-10-17T12:35:22.352Z,6620
2017-10-17T12:36:32.778Z,6592
2017-10-17T12:37:43.209Z,6604
2017-10-17T12:38:53.630Z,6484
2017-10-17T12:40:04.079Z,6488
2017-10-17T12:41:14.497Z,6372
2017-10-17T12:42:24.564Z,6368
2017-10-17T12:43:34.979Z,6276
2017-10-17T12:44:44.737Z,6280
2017-10-17T12:45:55.198Z,6260
2017-10-17T12:47:05.645Z,6272
2017-10-17T12:48:16.082Z,6272
2017-10-17T12:49:26.487Z,6152
2017-10-17T12:50:36.901Z,6172
2017-10-17T12:51:47.002Z,6096
2017-10-17T12:52:57.411Z,6180
2017-10-17T12:54:07.827Z,6088
2017-10-17T12:55:18.258Z,6096
2017-10-17T12:56:28.680Z,6024
2017-10-17T12:57:39.149Z,6036
2017-10-17T12:58:49.577Z,6008
2017-10-17T13:00:00.216Z,5964
2017-10-17T13:01:10.654Z,5912
2017-10-17T13:02:21.063Z,5912
2017-10-17T13:03:31.200Z,5892
2017-10-17T13:04:42.545Z,5760
2017-10-17T13:05:52.945Z,5812
2017-10-17T13:07:03.364Z,5832
2017-10-17T13:08:13.449Z,5884
2017-10-17T13:09:23.856Z,5796
2017-10-17T13:10:34.269Z,5772
2017-10-17T13:11:44.364Z,5736
2017-10-17T13:12:54.130Z,5708
2017-10-17T13:14:04.564Z,5772
2017-10-17T13:15:15.013Z,5756
2017-10-17T13:16:25.431Z,5696
2017-10-17T13:17:35.840Z,5600
2017-10-17T13:18:46.279Z,5640
2017-10-17T13:19:56.373Z,5588
2017-10-17T13:21:06.471Z,5576
2017-10-17T13:22:16.883Z,5516
2017-10-17T13:23:27.305Z,5488
2017-10-17T13:24:37.390Z,5544
2017-10-17T13:25:47.839Z,5464
2017-10-17T13:26:58.304Z,5432
2017-10-17T13:28:08.741Z,5456
2017-10-17T13:29:19.200Z,5412
2017-10-17T13:30:29.626Z,5392
2017-10-17T13:31:40.054Z,5396
2017-10-17T13:32:50.476Z,5272
2017-10-17T13:34:00.933Z,5180
2017-10-17T13:35:11.008Z,5180
2017-10-17T13:36:21.154Z,5168
2017-10-17T13:37:31.561Z,5200
2017-10-17T13:38:41.685Z,5104
2017-10-17T13:39:52.139Z,4988
2017-10-17T13:41:02.573Z,4992
2017-10-17T13:42:13.004Z,4944
2017-10-17T13:43:25.383Z,4904
2017-10-17T13:44:35.810Z,4732
2017-10-17T13:45:45.908Z,4396
2017-10-17T13:46:56.354Z,4544
2017-10-17T13:48:06.778Z,4460
2017-10-17T13:49:17.198Z,4516
2017-10-17T13:50:27.668Z,4364
2017-10-17T13:51:38.093Z,4404
2017-10-17T13:52:48.197Z,4708
2017-10-17T13:53:58.641Z,4796
2017-10-17T13:55:08.743Z,4752
2017-10-17T13:56:19.240Z,4664
2017-10-17T13:57:29.675Z,4592
2017-10-17T13:58:40.098Z,4568
2017-10-17T13:59:50.533Z,4568
2017-10-17T14:01:00.950Z,4720
2017-10-17T14:02:11.061Z,4692
2017-10-17T14:03:21.509Z,4668
2017-10-17T14:04:31.926Z,4596
2017-10-17T14:05:42.357Z,4548
2017-10-17T14:06:52.796Z,4360
2017-10-17T14:08:02.949Z,3848
2017-10-17T14:09:13.045Z,3716
2017-10-17T14:10:23.485Z,3796
2017-10-17T14:11:33.914Z,3740
2017-10-17T14:12:46.076Z,4080
2017-10-17T14:13:56.544Z,4088
2017-10-17T14:15:06.978Z,3716
2017-10-17T14:16:17.405Z,3796
2017-10-17T14:17:27.873Z,4048
2017-10-17T14:18:37.985Z,3924
2017-10-17T14:19:48.152Z,3880
2017-10-17T14:20:58.579Z,3628
2017-10-17T14:22:08.997Z,3652
2017-10-17T14:23:19.431Z,3640
2017-10-17T14:24:29.514Z,3664
2017-10-17T14:25:40.022Z,3616
2017-10-17T14:26:50.452Z,3364
2017-10-17T14:28:00.875Z,3516
2017-10-17T14:29:10.966Z,3584
2017-10-17T14:30:21.395Z,3552
2017-10-17T14:31:31.548Z,3500
2017-10-17T14:32:41.955Z,3408
2017-10-17T14:33:52.394Z,3264
2017-10-17T14:35:02.501Z,3248
2017-10-17T14:36:12.945Z,3344
2017-10-17T14:37:23.474Z,3196
2017-10-17T14:38:33.883Z,3224
2017-10-17T14:39:43.980Z,3048
2017-10-17T14:40:54.421Z,3076
2017-10-17T14:42:04.859Z,2904
2017-10-17T14:43:15.290Z,2488
2017-10-17T14:44:25.710Z,2620
2017-10-17T14:45:36.150Z,2260
2017-10-17T14:46:46.566Z,2224
2017-10-17T14:47:56.650Z,2000
2017-10-17T14:49:06.408Z,2216
2017-10-17T14:50:16.481Z,2156
2017-10-17T14:51:26.585Z,2680
2017-10-17T14:52:37.001Z,2660
2017-10-17T14:53:47.106Z,2608
2017-10-17T14:54:57.526Z,2544
2017-10-17T14:56:07.613Z,2488
2017-10-17T14:57:17.375Z,2440
2017-10-17T14:58:27.791Z,2384
2017-10-17T14:59:38.230Z,2280
2017-10-17T15:00:48.361Z,2176
2017-10-17T15:01:58.789Z,2008
2017-10-17T15:03:08.887Z,1696
2017-10-17T15:04:19.003Z,1660
2017-10-17T15:05:29.414Z,1548
2017-10-17T15:06:39.846Z,1592
2017-10-17T15:07:49.946Z,1536
2017-10-17T15:09:00.373Z,1484
2017-10-17T15:10:10.788Z,1376
2017-10-17T15:11:21.251Z,1292
2017-10-17T15:12:31.667Z,1284
2017-10-17T15:13:42.098Z,1220
2017-10-17T15:14:52.218Z,1072
2017-10-17T15:16:02.320Z,984
2017-10-17T15:17:12.805Z,920
2017-10-17T15:18:23.224Z,856
2017-10-17T15:19:33.652Z,812
2017-10-17T15:20:43.745Z,804
2017-10-17T15:21:54.178Z,776
2017-10-17T15:23:04.636Z,732
2017-10-17T15:24:15.048Z,680
2017-10-17T15:25:25.155Z,644
2017-10-17T15:26:35.570Z,620
2017-10-17T15:27:46.006Z,596
2017-10-17T15:28:56.446Z,580
2017-10-17T15:30:06.877Z,564
2017-10-17T15:31:17.289Z,540
2017-10-17T15:32:27.730Z,512
2017-10-17T15:33:37.858Z,488
2017-10-17T15:34:48.326Z,464
2017-10-17T15:35:58.745Z,440
2017-10-17T15:37:09.169Z,424
2017-10-17T15:38:19.236Z,400
2017-10-17T15:39:29.651Z,380
2017-10-17T15:40:40.091Z,360
2017-10-17T15:41:50.523Z,340
2017-10-17T15:43:00.962Z,324
2017-10-17T15:44:11.368Z,304
2017-10-17T15:45:21.148Z,288
2017-10-17T15:46:31.636Z,272
2017-10-17T15:47:42.083Z,256
2017-10-17T15:48:52.489Z,236
2017-10-17T15:50:02.907Z,216
2017-10-17T15:51:13.347Z,200
2017-10-17T15:52:23.852Z,184
2017-10-17T15:53:34.252Z,168
2017-10-17T15:54:44.384Z,152
2017-10-17T15:55:54.478Z,136
2017-10-17T15:57:04.235Z,128
2017-10-17T15:58:14.636Z,112
2017-10-17T15:59:24.387Z,104
2017-10-17T16:00:34.852Z,92
2017-10-17T16:01:45.277Z,84
2017-10-17T16:02:55.353Z,76
2017-10-17T16:04:05.789Z,64
2017-10-17T16:05:16.223Z,60
2017-10-17T16:06:26.341Z,52
2017-10-17T16:07:36.752Z,44
2017-10-17T16:08:47.175Z,40
2017-10-17T16:09:57.279Z,32
2017-10-17T16:11:07.691Z,28
2017-10-17T16:12:18.117Z,24
2017-10-17T16:13:28.541Z,20
2017-10-17T16:14:38.646Z,16
2017-10-17T16:15:49.148Z,12
2017-10-17T16:16:59.595Z,12
2017-10-17T16:18:10.028Z,8
2017-10-17T16:19:20.472Z,4
2017-10-17T16:20:30.568Z,8
2017-10-17T16:21:40.059Z,8
2017-10-17T16:22:50.493Z,4
2017-10-17T16:24:00.581Z,4
2017-10-17T16:25:11.021Z,4
2017-10-17T16:26:21.435Z,0
2017-10-17T16:27:31.585Z,4
2017-10-17T16:28:41.353Z,4
2017-10-17T16:29:51.454Z,4
2017-10-17T16:31:01.866Z,0
2017-10-17T16:32:12.289Z,0
2017-10-17T16:33:22.773Z,0
2017-10-17T16:34:33.191Z,0
2017-10-17T16:35:43.627Z,0
2017-10-17T16:36:54.054Z,0
2017-10-17T16:38:04.162Z,0
2017-10-17T16:39:14.302Z,0
2017-10-17T16:40:24.735Z,0
2017-10-17T16:41:34.832Z,0